sensor_id;sensor_type;location;lat;lon;timestamp;temperature;humidity
20483;DHT22;10400;53.198;6.592;2022-10-10T00:01:43;9.00;99.90
20483;DHT22;10400;53.198;6.592;2022-10-10T00:04:09;9.00;99.90
20483;DHT22;10400;53.198;6.592;2022-10-10T00:06:34;9.00;99.90
20483;DHT22;10400;53.198;6.592;2022-10-10T00:09:00;9.00;99.90
20483;DHT22;10400;53.198;6.592;2022-10-10T00:11:26;9.00;99.90
20483;DHT22;10400;53.198;6.592;2022-10-10T00:13:52;9.00;99.90
20483;DHT22;10400;53.198;6.592;2022-10-10T00:16:19;9.00;99.90
20483;DHT22;10400;53.198;6.592;2022-10-10T00:18:46;9.00;99.90
20483;DHT22;10400;53.198;6.592;2022-10-10T00:21:12;9.00;99.90
20483;DHT22;10400;53.198;6.592;2022-10-10T00:23:37;8.90;99.90
20483;DHT22;10400;53.198;6.592;2022-10-10T00:26:04;9.00;99.90
20483;DHT22;10400;53.198;6.592;2022-10-10T00:28:29;9.00;99.90
20483;DHT22;10400;53.198;6.592;2022-10-10T00:30:55;8.90;99.90
20483;DHT22;10400;53.198;6.592;2022-10-10T00:33:21;9.00;99.90
20483;DHT22;10400;53.198;6.592;2022-10-10T00:35:47;9.00;99.90
20483;DHT22;10400;53.198;6.592;2022-10-10T00:38:13;8.90;99.90
20483;DHT22;10400;53.198;6.592;2022-10-10T00:40:50;8.90;99.90
20483;DHT22;10400;53.198;6.592;2022-10-10T00:43:17;8.90;99.90
20483;DHT22;10400;53.198;6.592;2022-10-10T00:45:45;8.80;99.90
20483;DHT22;10400;53.198;6.592;2022-10-10T00:48:21;8.80;99.90
20483;DHT22;10400;53.198;6.592;2022-10-10T00:50:48;8.80;99.90
20483;DHT22;10400;53.198;6.592;2022-10-10T00:53:17;8.80;99.90
20483;DHT22;10400;53.198;6.592;2022-10-10T00:55:44;8.80;99.90
20483;DHT22;10400;53.198;6.592;2022-10-10T00:58:11;8.80;99.90
20483;DHT22;10400;53.198;6.592;2022-10-10T01:14:27;8.80;99.90
20483;DHT22;10400;53.198;6.592;2022-10-10T01:17:13;8.90;99.90
20483;DHT22;10400;53.198;6.592;2022-10-10T01:22:49;8.80;99.90
20483;DHT22;10400;53.198;6.592;2022-10-10T01:28:29;8.60;99.90
20483;DHT22;10400;53.198;6.592;2022-10-10T01:30:58;8.70;99.90
20483;DHT22;10400;53.198;6.592;2022-10-10T01:33:31;8.70;99.90
20483;DHT22;10400;53.198;6.592;2022-10-10T01:39:04;8.80;99.90
20483;DHT22;10400;53.198;6.592;2022-10-10T01:41:35;8.70;99.90
20483;DHT22;10400;53.198;6.592;2022-10-10T01:44:02;8.70;99.90
20483;DHT22;10400;53.198;6.592;2022-10-10T01:46:28;8.70;99.90
20483;DHT22;10400;53.198;6.592;2022-10-10T01:48:56;8.70;99.90
20483;DHT22;10400;53.198;6.592;2022-10-10T01:59:08;8.90;99.90
20483;DHT22;10400;53.198;6.592;2022-10-10T02:01:52;8.90;99.90
20483;DHT22;10400;53.198;6.592;2022-10-10T02:06:54;8.90;99.90
20483;DHT22;10400;53.198;6.592;2022-10-10T02:09:27;8.90;99.90
20483;DHT22;10400;53.198;6.592;2022-10-10T02:11:55;8.80;99.90
20483;DHT22;10400;53.198;6.592;2022-10-10T02:14:25;8.80;99.90
20483;DHT22;10400;53.198;6.592;2022-10-10T02:16:54;8.80;99.90
20483;DHT22;10400;53.198;6.592;2022-10-10T02:19:22;8.80;99.90
20483;DHT22;10400;53.198;6.592;2022-10-10T02:21:50;8.80;99.90
20483;DHT22;10400;53.198;6.592;2022-10-10T02:24:17;8.70;99.90
20483;DHT22;10400;53.198;6.592;2022-10-10T02:26:47;8.70;99.90
20483;DHT22;10400;53.198;6.592;2022-10-10T02:29:19;8.60;99.90
20483;DHT22;10400;53.198;6.592;2022-10-10T02:31:57;8.60;99.90
20483;DHT22;10400;53.198;6.592;2022-10-10T02:34:28;8.60;99.90
20483;DHT22;10400;53.198;6.592;2022-10-10T02:36:58;8.70;99.90
20483;DHT22;10400;53.198;6.592;2022-10-10T02:39:28;8.80;99.90
20483;DHT22;10400;53.198;6.592;2022-10-10T02:41:55;8.70;99.90
20483;DHT22;10400;53.198;6.592;2022-10-10T02:44:21;8.80;99.90
20483;DHT22;10400;53.198;6.592;2022-10-10T02:46:48;8.80;99.90
20483;DHT22;10400;53.198;6.592;2022-10-10T02:49:14;8.80;99.90
20483;DHT22;10400;53.198;6.592;2022-10-10T02:51:46;8.80;99.90
20483;DHT22;10400;53.198;6.592;2022-10-10T02:54:12;8.90;99.90
20483;DHT22;10400;53.198;6.592;2022-10-10T02:56:37;8.90;99.90
20483;DHT22;10400;53.198;6.592;2022-10-10T02:59:03;8.90;99.90
20483;DHT22;10400;53.198;6.592;2022-10-10T03:01:29;8.90;99.90
20483;DHT22;10400;53.198;6.592;2022-10-10T03:03:54;8.90;99.90
20483;DHT22;10400;53.198;6.592;2022-10-10T03:06:20;8.90;99.90
20483;DHT22;10400;53.198;6.592;2022-10-10T03:08:45;8.90;99.90
20483;DHT22;10400;53.198;6.592;2022-10-10T03:11:11;8.90;99.90
20483;DHT22;10400;53.198;6.592;2022-10-10T03:13:36;8.90;99.90
20483;DHT22;10400;53.198;6.592;2022-10-10T03:16:02;8.90;99.90
20483;DHT22;10400;53.198;6.592;2022-10-10T03:18:28;8.90;99.90
20483;DHT22;10400;53.198;6.592;2022-10-10T03:20:55;8.90;99.90
20483;DHT22;10400;53.198;6.592;2022-10-10T03:23:21;8.90;99.90
20483;DHT22;10400;53.198;6.592;2022-10-10T03:25:47;8.90;99.90
20483;DHT22;10400;53.198;6.592;2022-10-10T03:28:13;8.90;99.90
20483;DHT22;10400;53.198;6.592;2022-10-10T03:30:40;8.90;99.90
20483;DHT22;10400;53.198;6.592;2022-10-10T03:33:06;8.90;99.90
20483;DHT22;10400;53.198;6.592;2022-10-10T03:35:32;8.80;99.90
20483;DHT22;10400;53.198;6.592;2022-10-10T03:37:58;8.90;99.90
20483;DHT22;10400;53.198;6.592;2022-10-10T03:40:24;8.90;99.90
20483;DHT22;10400;53.198;6.592;2022-10-10T03:42:50;8.90;99.90
20483;DHT22;10400;53.198;6.592;2022-10-10T03:45:15;8.90;99.90
20483;DHT22;10400;53.198;6.592;2022-10-10T03:47:41;8.90;99.90
20483;DHT22;10400;53.198;6.592;2022-10-10T03:50:07;8.90;99.90
20483;DHT22;10400;53.198;6.592;2022-10-10T03:52:33;8.90;99.90
20483;DHT22;10400;53.198;6.592;2022-10-10T03:54:58;8.80;99.90
20483;DHT22;10400;53.198;6.592;2022-10-10T03:57:24;8.80;99.90
20483;DHT22;10400;53.198;6.592;2022-10-10T03:59:50;8.80;99.90
20483;DHT22;10400;53.198;6.592;2022-10-10T04:02:15;8.80;99.90
20483;DHT22;10400;53.198;6.592;2022-10-10T04:04:41;8.70;99.90
20483;DHT22;10400;53.198;6.592;2022-10-10T04:07:07;8.70;99.90
20483;DHT22;10400;53.198;6.592;2022-10-10T04:09:32;8.70;99.90
20483;DHT22;10400;53.198;6.592;2022-10-10T04:11:58;8.70;99.90
20483;DHT22;10400;53.198;6.592;2022-10-10T04:14:24;8.70;99.90
20483;DHT22;10400;53.198;6.592;2022-10-10T04:16:50;8.70;99.90
20483;DHT22;10400;53.198;6.592;2022-10-10T04:19:16;8.70;99.90
20483;DHT22;10400;53.198;6.592;2022-10-10T04:21:42;8.70;99.90
20483;DHT22;10400;53.198;6.592;2022-10-10T04:24:08;8.70;99.90
20483;DHT22;10400;53.198;6.592;2022-10-10T04:26:34;8.70;99.90
20483;DHT22;10400;53.198;6.592;2022-10-10T04:28:59;8.70;99.90
20483;DHT22;10400;53.198;6.592;2022-10-10T04:31:25;8.70;99.90
20483;DHT22;10400;53.198;6.592;2022-10-10T04:33:51;8.80;99.90
20483;DHT22;10400;53.198;6.592;2022-10-10T04:36:17;8.70;99.90
20483;DHT22;10400;53.198;6.592;2022-10-10T04:38:42;8.60;99.90
20483;DHT22;10400;53.198;6.592;2022-10-10T04:41:08;8.70;99.90
20483;DHT22;10400;53.198;6.592;2022-10-10T04:43:34;8.60;99.90
20483;DHT22;10400;53.198;6.592;2022-10-10T04:45:59;8.70;99.90
20483;DHT22;10400;53.198;6.592;2022-10-10T04:48:25;8.60;99.90
20483;DHT22;10400;53.198;6.592;2022-10-10T04:50:56;8.60;99.90
20483;DHT22;10400;53.198;6.592;2022-10-10T04:53:22;8.70;99.90
20483;DHT22;10400;53.198;6.592;2022-10-10T04:55:48;8.70;99.90
20483;DHT22;10400;53.198;6.592;2022-10-10T04:58:14;8.70;99.90
20483;DHT22;10400;53.198;6.592;2022-10-10T05:00:40;8.60;99.90
20483;DHT22;10400;53.198;6.592;2022-10-10T05:03:06;8.60;99.90
20483;DHT22;10400;53.198;6.592;2022-10-10T05:05:32;8.50;99.90
20483;DHT22;10400;53.198;6.592;2022-10-10T05:07:58;8.50;99.90
20483;DHT22;10400;53.198;6.592;2022-10-10T05:10:24;8.50;99.90
20483;DHT22;10400;53.198;6.592;2022-10-10T05:12:50;8.50;99.90
20483;DHT22;10400;53.198;6.592;2022-10-10T05:15:17;8.50;99.90
20483;DHT22;10400;53.198;6.592;2022-10-10T05:17:43;8.50;99.90
20483;DHT22;10400;53.198;6.592;2022-10-10T05:20:09;8.50;99.90
20483;DHT22;10400;53.198;6.592;2022-10-10T05:22:35;8.40;99.90
20483;DHT22;10400;53.198;6.592;2022-10-10T05:25:01;8.50;99.90
20483;DHT22;10400;53.198;6.592;2022-10-10T05:27:27;8.50;99.90
20483;DHT22;10400;53.198;6.592;2022-10-10T05:29:53;8.50;99.90
20483;DHT22;10400;53.198;6.592;2022-10-10T05:32:20;8.50;99.90
20483;DHT22;10400;53.198;6.592;2022-10-10T05:34:46;8.50;99.90
20483;DHT22;10400;53.198;6.592;2022-10-10T05:37:11;8.50;99.90
20483;DHT22;10400;53.198;6.592;2022-10-10T05:39:37;8.60;99.90
20483;DHT22;10400;53.198;6.592;2022-10-10T05:42:03;8.50;99.90
20483;DHT22;10400;53.198;6.592;2022-10-10T05:44:29;8.50;99.90
20483;DHT22;10400;53.198;6.592;2022-10-10T05:46:55;8.50;99.90
20483;DHT22;10400;53.198;6.592;2022-10-10T05:49:21;8.50;99.90
20483;DHT22;10400;53.198;6.592;2022-10-10T05:51:46;8.50;99.90
20483;DHT22;10400;53.198;6.592;2022-10-10T05:54:12;8.50;99.90
20483;DHT22;10400;53.198;6.592;2022-10-10T05:56:38;8.50;99.90
20483;DHT22;10400;53.198;6.592;2022-10-10T05:59:03;8.50;99.90
20483;DHT22;10400;53.198;6.592;2022-10-10T06:01:29;8.50;99.90
20483;DHT22;10400;53.198;6.592;2022-10-10T06:03:54;8.50;99.90
20483;DHT22;10400;53.198;6.592;2022-10-10T06:06:21;8.50;99.90
20483;DHT22;10400;53.198;6.592;2022-10-10T06:08:47;8.50;99.90
20483;DHT22;10400;53.198;6.592;2022-10-10T06:11:13;8.40;99.90
20483;DHT22;10400;53.198;6.592;2022-10-10T06:13:42;8.50;99.90
20483;DHT22;10400;53.198;6.592;2022-10-10T06:16:08;8.50;99.90
20483;DHT22;10400;53.198;6.592;2022-10-10T06:18:34;8.60;99.90
20483;DHT22;10400;53.198;6.592;2022-10-10T06:21:03;8.60;99.90
20483;DHT22;10400;53.198;6.592;2022-10-10T06:23:29;8.60;99.90
20483;DHT22;10400;53.198;6.592;2022-10-10T06:25:54;8.70;99.90
20483;DHT22;10400;53.198;6.592;2022-10-10T06:28:20;8.80;99.90
20483;DHT22;10400;53.198;6.592;2022-10-10T06:30:47;8.70;99.90
20483;DHT22;10400;53.198;6.592;2022-10-10T06:33:15;8.70;99.90
20483;DHT22;10400;53.198;6.592;2022-10-10T06:35:44;8.70;99.90
20483;DHT22;10400;53.198;6.592;2022-10-10T06:38:11;8.80;99.90
20483;DHT22;10400;53.198;6.592;2022-10-10T06:40:37;8.80;99.90
20483;DHT22;10400;53.198;6.592;2022-10-10T06:43:03;8.90;99.90
20483;DHT22;10400;53.198;6.592;2022-10-10T06:45:35;8.90;99.90
20483;DHT22;10400;53.198;6.592;2022-10-10T06:48:00;9.00;99.90
20483;DHT22;10400;53.198;6.592;2022-10-10T06:50:26;9.10;99.90
20483;DHT22;10400;53.198;6.592;2022-10-10T06:52:51;9.10;99.90
20483;DHT22;10400;53.198;6.592;2022-10-10T06:55:17;9.20;99.90
20483;DHT22;10400;53.198;6.592;2022-10-10T06:57:43;9.20;99.90
20483;DHT22;10400;53.198;6.592;2022-10-10T07:00:09;9.30;99.90
20483;DHT22;10400;53.198;6.592;2022-10-10T07:02:35;9.40;99.90
20483;DHT22;10400;53.198;6.592;2022-10-10T07:05:06;9.50;99.90
20483;DHT22;10400;53.198;6.592;2022-10-10T07:07:33;9.60;99.90
20483;DHT22;10400;53.198;6.592;2022-10-10T07:09:59;9.70;99.90
20483;DHT22;10400;53.198;6.592;2022-10-10T07:12:24;9.70;99.90
20483;DHT22;10400;53.198;6.592;2022-10-10T07:14:50;9.70;99.90
20483;DHT22;10400;53.198;6.592;2022-10-10T07:17:16;9.80;99.90
20483;DHT22;10400;53.198;6.592;2022-10-10T07:19:41;9.80;99.90
20483;DHT22;10400;53.198;6.592;2022-10-10T07:22:07;9.80;99.90
20483;DHT22;10400;53.198;6.592;2022-10-10T07:24:33;9.90;99.90
20483;DHT22;10400;53.198;6.592;2022-10-10T07:26:58;9.90;99.90
20483;DHT22;10400;53.198;6.592;2022-10-10T07:29:24;10.00;99.90
20483;DHT22;10400;53.198;6.592;2022-10-10T07:31:50;10.00;99.90
20483;DHT22;10400;53.198;6.592;2022-10-10T07:34:15;10.00;99.90
20483;DHT22;10400;53.198;6.592;2022-10-10T07:36:41;10.10;99.90
20483;DHT22;10400;53.198;6.592;2022-10-10T07:39:08;10.30;99.90
20483;DHT22;10400;53.198;6.592;2022-10-10T07:41:33;10.30;99.90
20483;DHT22;10400;53.198;6.592;2022-10-10T07:43:59;10.40;99.90
20483;DHT22;10400;53.198;6.592;2022-10-10T07:46:24;10.40;99.90
20483;DHT22;10400;53.198;6.592;2022-10-10T07:48:50;10.40;99.90
20483;DHT22;10400;53.198;6.592;2022-10-10T07:51:16;10.30;99.90
20483;DHT22;10400;53.198;6.592;2022-10-10T07:53:42;10.40;99.90
20483;DHT22;10400;53.198;6.592;2022-10-10T07:56:09;10.50;99.90
20483;DHT22;10400;53.198;6.592;2022-10-10T07:58:35;10.60;99.90
20483;DHT22;10400;53.198;6.592;2022-10-10T08:01:06;10.70;99.90
20483;DHT22;10400;53.198;6.592;2022-10-10T08:03:32;10.80;99.90
20483;DHT22;10400;53.198;6.592;2022-10-10T08:05:57;10.80;99.90
20483;DHT22;10400;53.198;6.592;2022-10-10T08:08:23;11.00;99.90
20483;DHT22;10400;53.198;6.592;2022-10-10T08:10:49;11.10;99.90
20483;DHT22;10400;53.198;6.592;2022-10-10T08:13:15;11.10;99.90
20483;DHT22;10400;53.198;6.592;2022-10-10T08:15:40;11.10;99.90
20483;DHT22;10400;53.198;6.592;2022-10-10T08:18:06;11.20;99.90
20483;DHT22;10400;53.198;6.592;2022-10-10T08:20:32;11.30;99.90
20483;DHT22;10400;53.198;6.592;2022-10-10T08:22:57;11.30;99.90
20483;DHT22;10400;53.198;6.592;2022-10-10T08:25:23;11.50;99.90
20483;DHT22;10400;53.198;6.592;2022-10-10T08:27:49;11.60;99.90
20483;DHT22;10400;53.198;6.592;2022-10-10T08:30:15;11.70;99.90
20483;DHT22;10400;53.198;6.592;2022-10-10T08:32:40;11.70;99.90
20483;DHT22;10400;53.198;6.592;2022-10-10T08:35:06;11.90;99.90
20483;DHT22;10400;53.198;6.592;2022-10-10T08:37:32;12.00;99.90
20483;DHT22;10400;53.198;6.592;2022-10-10T08:39:57;12.10;99.90
20483;DHT22;10400;53.198;6.592;2022-10-10T08:42:35;12.20;99.90
20483;DHT22;10400;53.198;6.592;2022-10-10T08:45:10;12.30;99.90
20483;DHT22;10400;53.198;6.592;2022-10-10T08:47:46;12.40;99.90
20483;DHT22;10400;53.198;6.592;2022-10-10T08:53:27;12.60;99.90
20483;DHT22;10400;53.198;6.592;2022-10-10T08:55:56;12.60;99.90
20483;DHT22;10400;53.198;6.592;2022-10-10T08:58:36;12.70;99.90
20483;DHT22;10400;53.198;6.592;2022-10-10T09:01:19;12.80;99.90
20483;DHT22;10400;53.198;6.592;2022-10-10T09:03:58;12.90;99.90
20483;DHT22;10400;53.198;6.592;2022-10-10T09:15:14;13.10;99.90
20483;DHT22;10400;53.198;6.592;2022-10-10T09:20:30;13.30;99.90
20483;DHT22;10400;53.198;6.592;2022-10-10T09:23:03;13.40;99.90
20483;DHT22;10400;53.198;6.592;2022-10-10T09:25:43;13.40;99.90
20483;DHT22;10400;53.198;6.592;2022-10-10T09:28:27;13.40;99.90
20483;DHT22;10400;53.198;6.592;2022-10-10T09:30:59;13.50;99.90
20483;DHT22;10400;53.198;6.592;2022-10-10T09:33:43;13.60;99.90
20483;DHT22;10400;53.198;6.592;2022-10-10T09:36:12;13.60;99.90
20483;DHT22;10400;53.198;6.592;2022-10-10T09:38:52;13.60;99.90
20483;DHT22;10400;53.198;6.592;2022-10-10T09:41:28;13.60;99.90
20483;DHT22;10400;53.198;6.592;2022-10-10T09:43:58;13.60;99.90
20483;DHT22;10400;53.198;6.592;2022-10-10T09:46:24;13.60;99.90
20483;DHT22;10400;53.198;6.592;2022-10-10T09:48:52;13.50;99.90
20483;DHT22;10400;53.198;6.592;2022-10-10T09:51:19;13.50;99.90
20483;DHT22;10400;53.198;6.592;2022-10-10T09:53:46;13.50;99.90
20483;DHT22;10400;53.198;6.592;2022-10-10T09:56:32;13.50;99.90
20483;DHT22;10400;53.198;6.592;2022-10-10T09:58:59;13.60;99.90
20483;DHT22;10400;53.198;6.592;2022-10-10T10:01:26;13.70;99.90
20483;DHT22;10400;53.198;6.592;2022-10-10T10:04:12;13.80;99.90
20483;DHT22;10400;53.198;6.592;2022-10-10T10:06:46;13.90;99.90
20483;DHT22;10400;53.198;6.592;2022-10-10T10:09:30;13.90;99.90
20483;DHT22;10400;53.198;6.592;2022-10-10T10:11:56;14.10;99.90
20483;DHT22;10400;53.198;6.592;2022-10-10T10:14:31;14.10;99.90
20483;DHT22;10400;53.198;6.592;2022-10-10T10:17:12;14.10;99.90
20483;DHT22;10400;53.198;6.592;2022-10-10T10:19:41;14.20;99.90
20483;DHT22;10400;53.198;6.592;2022-10-10T10:22:38;14.40;99.90
20483;DHT22;10400;53.198;6.592;2022-10-10T10:27:52;14.60;99.90
20483;DHT22;10400;53.198;6.592;2022-10-10T10:30:32;14.70;99.90
20483;DHT22;10400;53.198;6.592;2022-10-10T10:33:05;14.70;99.90
20483;DHT22;10400;53.198;6.592;2022-10-10T10:35:48;14.80;99.90
20483;DHT22;10400;53.198;6.592;2022-10-10T10:38:25;14.70;99.90
20483;DHT22;10400;53.198;6.592;2022-10-10T10:43:49;14.70;99.90
20483;DHT22;10400;53.198;6.592;2022-10-10T10:49:02;14.90;99.90
20483;DHT22;10400;53.198;6.592;2022-10-10T10:51:49;15.30;99.90
20483;DHT22;10400;53.198;6.592;2022-10-10T11:10:37;15.90;99.90
20483;DHT22;10400;53.198;6.592;2022-10-10T11:15:55;15.70;99.90
20483;DHT22;10400;53.198;6.592;2022-10-10T11:18:42;15.60;99.90
20483;DHT22;10400;53.198;6.592;2022-10-10T11:21:40;15.50;99.90
20483;DHT22;10400;53.198;6.592;2022-10-10T11:24:37;15.40;99.90
20483;DHT22;10400;53.198;6.592;2022-10-10T11:27:05;15.30;99.90
20483;DHT22;10400;53.198;6.592;2022-10-10T11:29:58;15.20;99.90
20483;DHT22;10400;53.198;6.592;2022-10-10T11:37:43;15.00;99.90
20483;DHT22;10400;53.198;6.592;2022-10-10T11:40:32;14.90;99.90
20483;DHT22;10400;53.198;6.592;2022-10-10T11:43:03;14.80;99.90
20483;DHT22;10400;53.198;6.592;2022-10-10T11:45:34;14.80;99.90
20483;DHT22;10400;53.198;6.592;2022-10-10T11:48:16;14.70;99.90
20483;DHT22;10400;53.198;6.592;2022-10-10T11:50:44;14.70;99.90
20483;DHT22;10400;53.198;6.592;2022-10-10T11:53:21;14.60;99.90
20483;DHT22;10400;53.198;6.592;2022-10-10T11:58:30;14.50;99.90
20483;DHT22;10400;53.198;6.592;2022-10-10T12:01:03;14.50;99.90
20483;DHT22;10400;53.198;6.592;2022-10-10T12:03:30;14.50;99.90
20483;DHT22;10400;53.198;6.592;2022-10-10T12:08:58;14.50;99.90
20483;DHT22;10400;53.198;6.592;2022-10-10T12:13:59;14.60;99.90
20483;DHT22;10400;53.198;6.592;2022-10-10T12:16:30;14.60;99.90
20483;DHT22;10400;53.198;6.592;2022-10-10T12:21:57;14.60;99.90
20483;DHT22;10400;53.198;6.592;2022-10-10T12:24:25;14.50;99.90
20483;DHT22;10400;53.198;6.592;2022-10-10T12:30:05;14.60;99.90
20483;DHT22;10400;53.198;6.592;2022-10-10T12:32:45;14.60;99.90
20483;DHT22;10400;53.198;6.592;2022-10-10T12:35:33;14.60;99.90
20483;DHT22;10400;53.198;6.592;2022-10-10T12:41:16;14.60;99.90
20483;DHT22;10400;53.198;6.592;2022-10-10T12:43:42;14.60;99.90
20483;DHT22;10400;53.198;6.592;2022-10-10T12:46:26;14.60;99.90
20483;DHT22;10400;53.198;6.592;2022-10-10T12:51:39;14.50;99.90
20483;DHT22;10400;53.198;6.592;2022-10-10T12:54:06;14.50;99.90
20483;DHT22;10400;53.198;6.592;2022-10-10T12:56:36;14.40;99.90
20483;DHT22;10400;53.198;6.592;2022-10-10T12:59:04;14.40;99.90
20483;DHT22;10400;53.198;6.592;2022-10-10T13:01:34;14.50;99.90
20483;DHT22;10400;53.198;6.592;2022-10-10T13:04:02;14.40;99.90
20483;DHT22;10400;53.198;6.592;2022-10-10T13:06:33;14.40;99.90
20483;DHT22;10400;53.198;6.592;2022-10-10T13:09:02;14.40;99.90
20483;DHT22;10400;53.198;6.592;2022-10-10T13:11:31;14.30;99.90
20483;DHT22;10400;53.198;6.592;2022-10-10T13:13:57;14.20;99.90
20483;DHT22;10400;53.198;6.592;2022-10-10T13:16:25;14.20;99.90
20483;DHT22;10400;53.198;6.592;2022-10-10T13:18:53;14.20;99.90
20483;DHT22;10400;53.198;6.592;2022-10-10T13:21:28;14.20;99.90
20483;DHT22;10400;53.198;6.592;2022-10-10T13:23:57;14.10;99.90
20483;DHT22;10400;53.198;6.592;2022-10-10T13:26:28;14.10;99.90
20483;DHT22;10400;53.198;6.592;2022-10-10T13:28:56;14.20;99.90
20483;DHT22;10400;53.198;6.592;2022-10-10T13:31:25;14.20;99.90
20483;DHT22;10400;53.198;6.592;2022-10-10T13:34:02;14.10;99.90
20483;DHT22;10400;53.198;6.592;2022-10-10T13:36:30;14.10;99.90
20483;DHT22;10400;53.198;6.592;2022-10-10T13:38:56;14.10;99.90
20483;DHT22;10400;53.198;6.592;2022-10-10T13:41:23;14.10;99.90
20483;DHT22;10400;53.198;6.592;2022-10-10T13:43:50;14.00;99.90
20483;DHT22;10400;53.198;6.592;2022-10-10T13:46:31;14.00;99.90
20483;DHT22;10400;53.198;6.592;2022-10-10T13:48:58;13.90;99.90
20483;DHT22;10400;53.198;6.592;2022-10-10T13:51:45;13.70;99.90
20483;DHT22;10400;53.198;6.592;2022-10-10T13:54:40;13.50;99.90
20483;DHT22;10400;53.198;6.592;2022-10-10T13:57:27;13.40;99.90
20483;DHT22;10400;53.198;6.592;2022-10-10T14:00:03;13.20;99.90
20483;DHT22;10400;53.198;6.592;2022-10-10T14:02:32;13.10;99.90
20483;DHT22;10400;53.198;6.592;2022-10-10T14:05:04;13.00;99.90
20483;DHT22;10400;53.198;6.592;2022-10-10T14:07:30;13.00;99.90
20483;DHT22;10400;53.198;6.592;2022-10-10T14:10:07;12.80;99.90
20483;DHT22;10400;53.198;6.592;2022-10-10T14:12:41;12.80;99.90
20483;DHT22;10400;53.198;6.592;2022-10-10T14:15:42;12.80;99.90
20483;DHT22;10400;53.198;6.592;2022-10-10T14:20:44;12.60;99.90
20483;DHT22;10400;53.198;6.592;2022-10-10T14:23:11;12.70;99.90
20483;DHT22;10400;53.198;6.592;2022-10-10T14:25:41;12.70;99.90
20483;DHT22;10400;53.198;6.592;2022-10-10T14:28:16;12.60;99.90
20483;DHT22;10400;53.198;6.592;2022-10-10T14:30:42;12.70;99.90
20483;DHT22;10400;53.198;6.592;2022-10-10T14:33:13;12.70;99.90
20483;DHT22;10400;53.198;6.592;2022-10-10T14:35:40;12.80;99.90
20483;DHT22;10400;53.198;6.592;2022-10-10T14:38:07;12.80;99.90
20483;DHT22;10400;53.198;6.592;2022-10-10T14:40:34;12.90;99.90
20483;DHT22;10400;53.198;6.592;2022-10-10T14:43:00;13.00;99.90
20483;DHT22;10400;53.198;6.592;2022-10-10T14:45:26;13.10;99.90
20483;DHT22;10400;53.198;6.592;2022-10-10T14:47:52;13.10;99.90
20483;DHT22;10400;53.198;6.592;2022-10-10T14:50:21;13.10;99.90
20483;DHT22;10400;53.198;6.592;2022-10-10T14:52:47;13.10;99.90
20483;DHT22;10400;53.198;6.592;2022-10-10T14:55:13;13.30;99.90
20483;DHT22;10400;53.198;6.592;2022-10-10T14:57:39;13.30;99.90
20483;DHT22;10400;53.198;6.592;2022-10-10T15:00:07;13.40;99.90
20483;DHT22;10400;53.198;6.592;2022-10-10T15:02:35;13.40;99.90
20483;DHT22;10400;53.198;6.592;2022-10-10T15:05:01;13.50;99.90
20483;DHT22;10400;53.198;6.592;2022-10-10T15:07:27;13.60;99.90
20483;DHT22;10400;53.198;6.592;2022-10-10T15:09:52;13.60;99.90
20483;DHT22;10400;53.198;6.592;2022-10-10T15:12:18;13.60;99.90
20483;DHT22;10400;53.198;6.592;2022-10-10T15:14:44;13.70;99.90
20483;DHT22;10400;53.198;6.592;2022-10-10T15:17:09;13.70;99.90
20483;DHT22;10400;53.198;6.592;2022-10-10T15:19:35;13.70;99.90
20483;DHT22;10400;53.198;6.592;2022-10-10T15:22:00;13.70;99.90
20483;DHT22;10400;53.198;6.592;2022-10-10T15:24:26;13.70;99.90
20483;DHT22;10400;53.198;6.592;2022-10-10T15:26:51;13.70;99.90
20483;DHT22;10400;53.198;6.592;2022-10-10T15:29:17;13.50;99.90
20483;DHT22;10400;53.198;6.592;2022-10-10T15:31:43;13.60;99.90
20483;DHT22;10400;53.198;6.592;2022-10-10T15:34:08;13.50;99.90
20483;DHT22;10400;53.198;6.592;2022-10-10T15:36:34;13.50;99.90
20483;DHT22;10400;53.198;6.592;2022-10-10T15:39:00;13.50;99.90
20483;DHT22;10400;53.198;6.592;2022-10-10T15:41:26;13.50;99.90
20483;DHT22;10400;53.198;6.592;2022-10-10T15:43:53;13.50;99.90
20483;DHT22;10400;53.198;6.592;2022-10-10T15:46:23;13.40;99.90
20483;DHT22;10400;53.198;6.592;2022-10-10T15:48:49;13.50;99.90
20483;DHT22;10400;53.198;6.592;2022-10-10T15:51:15;13.50;99.90
20483;DHT22;10400;53.198;6.592;2022-10-10T15:53:41;13.60;99.90
20483;DHT22;10400;53.198;6.592;2022-10-10T15:56:08;13.60;99.90
20483;DHT22;10400;53.198;6.592;2022-10-10T15:58:35;13.50;99.90
20483;DHT22;10400;53.198;6.592;2022-10-10T16:01:14;13.50;99.90
20483;DHT22;10400;53.198;6.592;2022-10-10T16:03:40;13.50;99.90
20483;DHT22;10400;53.198;6.592;2022-10-10T16:06:07;13.40;99.90
20483;DHT22;10400;53.198;6.592;2022-10-10T16:08:33;13.30;99.90
20483;DHT22;10400;53.198;6.592;2022-10-10T16:11:06;13.30;99.90
20483;DHT22;10400;53.198;6.592;2022-10-10T16:13:34;13.20;99.90
20483;DHT22;10400;53.198;6.592;2022-10-10T16:16:02;13.20;99.90
20483;DHT22;10400;53.198;6.592;2022-10-10T16:18:29;13.10;99.90
20483;DHT22;10400;53.198;6.592;2022-10-10T16:20:55;13.10;99.90
20483;DHT22;10400;53.198;6.592;2022-10-10T16:23:21;12.90;99.90
20483;DHT22;10400;53.198;6.592;2022-10-10T16:25:47;12.90;99.90
20483;DHT22;10400;53.198;6.592;2022-10-10T16:28:12;12.80;99.90
20483;DHT22;10400;53.198;6.592;2022-10-10T16:30:38;12.80;99.90
20483;DHT22;10400;53.198;6.592;2022-10-10T16:33:04;12.70;99.90
20483;DHT22;10400;53.198;6.592;2022-10-10T16:35:29;12.80;99.90
20483;DHT22;10400;53.198;6.592;2022-10-10T16:37:59;12.70;99.90
20483;DHT22;10400;53.198;6.592;2022-10-10T16:40:25;12.70;99.90
20483;DHT22;10400;53.198;6.592;2022-10-10T16:42:50;12.60;99.90
20483;DHT22;10400;53.198;6.592;2022-10-10T16:45:16;12.60;99.90
20483;DHT22;10400;53.198;6.592;2022-10-10T16:47:41;12.50;99.90
20483;DHT22;10400;53.198;6.592;2022-10-10T16:50:07;12.40;99.90
20483;DHT22;10400;53.198;6.592;2022-10-10T16:52:33;12.40;99.90
20483;DHT22;10400;53.198;6.592;2022-10-10T16:55:03;12.40;99.90
20483;DHT22;10400;53.198;6.592;2022-10-10T16:57:30;12.40;99.90
20483;DHT22;10400;53.198;6.592;2022-10-10T16:59:57;12.40;99.90
20483;DHT22;10400;53.198;6.592;2022-10-10T17:02:23;12.40;99.90
20483;DHT22;10400;53.198;6.592;2022-10-10T17:04:49;12.40;99.90
20483;DHT22;10400;53.198;6.592;2022-10-10T17:07:17;12.40;99.90
20483;DHT22;10400;53.198;6.592;2022-10-10T17:09:43;12.30;99.90
20483;DHT22;10400;53.198;6.592;2022-10-10T17:12:10;12.30;99.90
20483;DHT22;10400;53.198;6.592;2022-10-10T17:14:36;12.30;99.90
20483;DHT22;10400;53.198;6.592;2022-10-10T17:17:01;12.20;99.90
20483;DHT22;10400;53.198;6.592;2022-10-10T17:19:27;12.10;99.90
20483;DHT22;10400;53.198;6.592;2022-10-10T17:21:53;12.10;99.90
20483;DHT22;10400;53.198;6.592;2022-10-10T17:24:18;12.10;99.90
20483;DHT22;10400;53.198;6.592;2022-10-10T17:26:44;12.00;99.90
20483;DHT22;10400;53.198;6.592;2022-10-10T17:29:10;12.00;99.90
20483;DHT22;10400;53.198;6.592;2022-10-10T17:31:36;11.90;99.90